Rankings de siempre
Mejores tiempos personales válidos de atleta a través de todos los eventos y temporadas. Cada atleta aparece una vez por división.
Busca por nombre y abre la página donde está clasificado este récord de división.
32,399 atletas clasificados
Los finishers de HYROX ELITE 15 se rastrean por separado — ver la clasificación Elite.
| Pos. | Pos. AG | Atleta | Nacionalidad | Categoría de edad | TiempoMejor tiempo | Diferencia |
|---|---|---|---|---|---|---|
| 10051 | #3410 | Duncan FriedrichAUS · M 30-34 · AG #3410 | AUS | M 30-34 | 1:17:34 | +24:07 |
| 10052 | #3411 | Nick De BlockBEL · M 30-34 · AG #3411 | BEL | M 30-34 | 1:17:34 | +24:07 |
| 10053 | #1055 | Shaun DewarGBR · M 40-44 · AG #1055 | GBR | M 40-44 | 1:17:35 | +24:08 |
| 10054 | #1056 | David LundeviSWE · M 40-44 · AG #1056 | SWE | M 40-44 | 1:17:35 | +24:08 |
| 10055 | #2184 | Samuel MeredithGBR · M 35-39 · AG #2184 | GBR | M 35-39 | 1:17:35 | +24:08 |
| 10056 | #1057 | Nils BernhardtGBR · M 40-44 · AG #1057 | GBR | M 40-44 | 1:17:35 | +24:08 |
| 10057 | #3415 | MITCHELL PENRODUSA · M 30-34 · AG #3415 | USA | M 30-34 | 1:17:35 | +24:08 |
| 10058 | #2685 | Evan MorvanFRA · M 25-29 · AG #2685 | FRA | M 25-29 | 1:17:35 | +24:08 |
| 10059 | #1054 | Craig WashingtonGBR · M 40-44 · AG #1054 | GBR | M 40-44 | 1:17:35 | +24:08 |
| 10060 | #3416 | Max Joh-CarnellaCAN · M 30-34 · AG #3416 | CAN | M 30-34 | 1:17:36 | +24:09 |
| 10061 | #2688 | Nicholas LuksichAUS · M 25-29 · AG #2688 | AUS | M 25-29 | 1:17:36 | +24:09 |
| 10062 | #1059 | Jason WoodUSA · M 40-44 · AG #1059 | USA | M 40-44 | 1:17:36 | +24:09 |
| 10063 | #2690 | Oriol TorróESP · M 25-29 · AG #2690 | ESP | M 25-29 | 1:17:36 | +24:09 |
| 10064 | #1058 | Jamie LairdGBR · M 40-44 · AG #1058 | GBR | M 40-44 | 1:17:36 | +24:09 |
| 10065 | #3417 | Maximilian HägerGER · M 30-34 · AG #3417 | GER | M 30-34 | 1:17:36 | +24:09 |
| 10066 | #2186 | Jonathan ChapmanGBR · M 35-39 · AG #2186 | GBR | M 35-39 | 1:17:36 | +24:09 |
| 10067 | #2185 | Gil VerstraetenBEL · M 35-39 · AG #2185 | BEL | M 35-39 | 1:17:36 | +24:09 |
| 10068 | #2689 | Harrison SeymourGBR · M 25-29 · AG #2689 | GBR | M 25-29 | 1:17:36 | +24:09 |
| 10069 | #3418 | Mirko KöllmannGER · M 30-34 · AG #3418 | GER | M 30-34 | 1:17:36 | +24:09 |
| 10070 | #2692 | Max SchenkGER · M 25-29 · AG #2692 | GER | M 25-29 | 1:17:36 | +24:09 |
| 10071 | #2691 | Spencer LambertGBR · M 25-29 · AG #2691 | GBR | M 25-29 | 1:17:36 | +24:09 |
| 10072 | #2687 | Peter MccarthyUSA · M 25-29 · AG #2687 | USA | M 25-29 | 1:17:36 | +24:09 |
| 10073 | #2686 | Fernando DantasBRA · M 25-29 · AG #2686 | BRA | M 25-29 | 1:17:36 | +24:09 |
| 10074 | #1062 | Adrien AudrenFRA · M 16-24 · AG #1062 | FRA | M 16-24 | 1:17:36 | +24:09 |
| 10075 | #1061 | Morgan AshworthGBR · M 16-24 · AG #1061 | GBR | M 16-24 | 1:17:36 | +24:09 |
Página 403 de 1,296